KLM1798 EDDL-EHAM
Flight info
| Callsign | KLM1798 |
|---|---|
| Flight time | N/A |
| Altitude | 18000 |
| Route | SONEB6Z/05R SONEB P55 RKN |
| Aircraft | E75L/M-SDE3GILORVW/S |
Departure
| Time | 2026-05-05 14:46 |
|---|---|
| Airport | Düsseldorf Airport (EDDL) |
Arrival
| Time | N/A |
|---|---|
| Airport | Amsterdam Airport Schiphol (EHAM) |
| Time | Latitude | Longitude | Altitude | Speed | Heading |
|---|---|---|---|---|---|
| 2026-05-05 14:22 | 51.28016 | 6.76421 | 128 ft | 0 kts | 208° |
| 2026-05-05 14:32 | 51.28037 | 6.76441 | 125 ft | 4 kts | 211° |
| 2026-05-05 14:32 | 51.28060 | 6.76452 | 125 ft | 4 kts | 155° |
| 2026-05-05 14:32 | 51.28079 | 6.76431 | 124 ft | 4 kts | 134° |
| 2026-05-05 14:32 | 51.28095 | 6.76399 | 126 ft | 4 kts | 127° |
| 2026-05-05 14:33 | 51.28114 | 6.76376 | 125 ft | 4 kts | 183° |
| 2026-05-05 14:33 | 51.28128 | 6.76400 | 126 ft | 4 kts | 250° |
| 2026-05-05 14:33 | 51.28127 | 6.76435 | 125 ft | 4 kts | 322° |
| 2026-05-05 14:33 | 51.28103 | 6.76442 | 126 ft | 4 kts | 3° |
| 2026-05-05 14:34 | 51.28078 | 6.76440 | 124 ft | 4 kts | 355° |
| 2026-05-05 14:34 | 51.28062 | 6.76451 | 125 ft | 0 kts | 327° |
| 2026-05-05 14:36 | 51.28068 | 6.76445 | 126 ft | 2 kts | 327° |
| 2026-05-05 14:37 | 51.28088 | 6.76423 | 124 ft | 5 kts | 326° |
| 2026-05-05 14:37 | 51.28133 | 6.76349 | 127 ft | 12 kts | 300° |
| 2026-05-05 14:37 | 51.28188 | 6.76239 | 127 ft | 13 kts | 329° |
| 2026-05-05 14:37 | 51.28223 | 6.76236 | 126 ft | 0 kts | 14° |
| 2026-05-05 14:38 | 51.28224 | 6.76236 | 126 ft | 1 kts | 4° |
| 2026-05-05 14:38 | 51.28225 | 6.76203 | 125 ft | 15 kts | 243° |
| 2026-05-05 14:38 | 51.28158 | 6.76081 | 125 ft | 12 kts | 232° |
| 2026-05-05 14:38 | 51.28107 | 6.75975 | 127 ft | 13 kts | 233° |
| 2026-05-05 14:39 | 51.28050 | 6.75856 | 126 ft | 15 kts | 232° |
| 2026-05-05 14:39 | 51.27982 | 6.75711 | 127 ft | 17 kts | 232° |
| 2026-05-05 14:39 | 51.27942 | 6.75608 | 126 ft | 8 kts | 264° |
| 2026-05-05 14:39 | 51.27974 | 6.75542 | 124 ft | 8 kts | 332° |
| 2026-05-05 14:40 | 51.27996 | 6.75524 | 124 ft | 0 kts | 333° |
| 2026-05-05 14:43 | 51.27997 | 6.75523 | 126 ft | 0 kts | 333° |
| 2026-05-05 14:44 | 51.27998 | 6.75523 | 125 ft | 1 kts | 333° |
| 2026-05-05 14:44 | 51.28057 | 6.75493 | 122 ft | 16 kts | 354° |
| 2026-05-05 14:45 | 51.28143 | 6.75583 | 126 ft | 14 kts | 52° |
| 2026-05-05 14:45 | 51.28199 | 6.75698 | 127 ft | 12 kts | 52° |
| 2026-05-05 14:45 | 51.28328 | 6.75969 | 127 ft | 54 kts | 53° |
| 2026-05-05 14:45 | 51.28638 | 6.76619 | 127 ft | 92 kts | 53° |
| 2026-05-05 14:46 | 51.29100 | 6.77589 | 129 ft | 131 kts | 52° |
| 2026-05-05 14:46 | 51.29736 | 6.78971 | 544 ft | 164 kts | 55° |
| 2026-05-05 14:46 | 51.30395 | 6.80578 | 1434 ft | 183 kts | 58° |
| 2026-05-05 14:46 | 51.31102 | 6.82466 | 2047 ft | 221 kts | 59° |
| 2026-05-05 14:47 | 51.31885 | 6.84637 | 1935 ft | 224 kts | 59° |
| 2026-05-05 14:47 | 51.32645 | 6.86782 | 1737 ft | 220 kts | 60° |
| 2026-05-05 14:47 | 51.33377 | 6.88898 | 1591 ft | 215 kts | 61° |
| 2026-05-05 14:47 | 51.34058 | 6.90920 | 1681 ft | 198 kts | 62° |
| 2026-05-05 14:48 | 51.34749 | 6.92752 | 2066 ft | 189 kts | 44° |
| 2026-05-05 14:48 | 51.35908 | 6.93861 | 2370 ft | 199 kts | 21° |
| 2026-05-05 14:48 | 51.37199 | 6.94485 | 2694 ft | 199 kts | 14° |
| 2026-05-05 14:48 | 51.38609 | 6.94896 | 3100 ft | 214 kts | 7° |
| 2026-05-05 14:49 | 51.40116 | 6.95032 | 3562 ft | 218 kts | 1° |
| 2026-05-05 14:49 | 51.41647 | 6.94866 | 4083 ft | 222 kts | 353° |
| 2026-05-05 14:49 | 51.43173 | 6.94402 | 4583 ft | 225 kts | 346° |
| 2026-05-05 14:49 | 51.44676 | 6.93646 | 5062 ft | 228 kts | 339° |
| 2026-05-05 14:50 | 51.46134 | 6.92610 | 5539 ft | 231 kts | 332° |
| 2026-05-05 14:50 | 51.47585 | 6.91470 | 6003 ft | 233 kts | 347° |
| 2026-05-05 14:50 | 51.49174 | 6.90796 | 6524 ft | 240 kts | 348° |
| 2026-05-05 14:50 | 51.50816 | 6.90414 | 7006 ft | 240 kts | 354° |
| 2026-05-05 14:51 | 51.52500 | 6.90298 | 7492 ft | 243 kts | 0° |
| 2026-05-05 14:51 | 51.54205 | 6.90457 | 7971 ft | 247 kts | 6° |
| 2026-05-05 14:51 | 51.55913 | 6.90896 | 8461 ft | 250 kts | 12° |
| 2026-05-05 14:51 | 51.57596 | 6.91612 | 8952 ft | 251 kts | 18° |
| 2026-05-05 14:52 | 51.59285 | 6.92363 | 9485 ft | 252 kts | 1° |
| 2026-05-05 14:52 | 51.61053 | 6.92299 | 9975 ft | 258 kts | 359° |
| 2026-05-05 14:52 | 51.62857 | 6.92345 | 10438 ft | 259 kts | 360° |
| 2026-05-05 14:52 | 51.64647 | 6.92228 | 10890 ft | 257 kts | 354° |
| 2026-05-05 14:53 | 51.66430 | 6.91884 | 11351 ft | 259 kts | 350° |
| 2026-05-05 14:53 | 51.68216 | 6.91305 | 11834 ft | 265 kts | 345° |
| 2026-05-05 14:53 | 51.69968 | 6.90472 | 12464 ft | 263 kts | 338° |
| 2026-05-05 14:53 | 51.71648 | 6.89358 | 13127 ft | 266 kts | 335° |
| 2026-05-05 14:54 | 51.73299 | 6.88011 | 13718 ft | 268 kts | 330° |
| 2026-05-05 14:54 | 51.74904 | 6.86458 | 14204 ft | 271 kts | 325° |
| 2026-05-05 14:54 | 51.76461 | 6.84754 | 14639 ft | 271 kts | 332° |
| 2026-05-05 14:54 | 51.78102 | 6.83209 | 15117 ft | 274 kts | 338° |
| 2026-05-05 14:55 | 51.79839 | 6.81911 | 15630 ft | 276 kts | 338° |
| 2026-05-05 14:55 | 51.81613 | 6.80685 | 16181 ft | 278 kts | 345° |
| 2026-05-05 14:55 | 51.83436 | 6.79751 | 16696 ft | 277 kts | 352° |
| 2026-05-05 14:55 | 51.85357 | 6.78992 | 16865 ft | 289 kts | 345° |
| 2026-05-05 14:56 | 51.87240 | 6.78067 | 16875 ft | 278 kts | 348° |
| 2026-05-05 14:56 | 51.89103 | 6.77228 | 16875 ft | 278 kts | 354° |
| 2026-05-05 14:56 | 51.91008 | 6.76646 | 16910 ft | 281 kts | 355° |
| 2026-05-05 14:56 | 51.92934 | 6.76175 | 16896 ft | 279 kts | 355° |
| 2026-05-05 14:57 | 51.94847 | 6.75652 | 16920 ft | 278 kts | 348° |
| 2026-05-05 14:57 | 51.96728 | 6.74904 | 16913 ft | 280 kts | 344° |
| 2026-05-05 14:57 | 51.98580 | 6.73931 | 16901 ft | 279 kts | 340° |
| 2026-05-05 14:57 | 52.00375 | 6.72751 | 16895 ft | 279 kts | 335° |
| 2026-05-05 14:58 | 52.02104 | 6.71374 | 16890 ft | 276 kts | 331° |
| 2026-05-05 14:58 | 52.03769 | 6.69802 | 16897 ft | 278 kts | 327° |
| 2026-05-05 14:58 | 52.05375 | 6.68031 | 16903 ft | 278 kts | 323° |
| 2026-05-05 14:58 | 52.06898 | 6.66090 | 16890 ft | 279 kts | 319° |
| 2026-05-05 14:59 | 52.08333 | 6.63987 | 16894 ft | 277 kts | 315° |
| 2026-05-05 14:59 | 52.09567 | 6.61836 | 14268 ft | 239 kts | 313° |
| 2026-05-05 14:59 | 52.08490 | 6.59917 | 7681 ft | 441 kts | 212° |
| 2026-05-05 14:59 | 52.07363 | 6.58632 | 13292 ft | 62 kts | 12° |
| 2026-05-05 15:00 | 52.08109 | 6.58842 | 13509 ft | 131 kts | 14° |
| 2026-05-05 15:00 | 52.08902 | 6.59061 | 9863 ft | 222 kts | 351° |
| 2026-05-05 15:00 | 52.11645 | 6.56407 | 3129 ft | 428 kts | 315° |
| 2026-05-05 15:00 | 52.13360 | 6.53104 | 3037 ft | 327 kts | 310° |
| 2026-05-05 15:01 | 52.14413 | 6.50282 | 1531 ft | 284 kts | 296° |
| 2026-05-05 15:01 | 52.15053 | 6.47454 | 262 ft | 242 kts | 313° |
| 2026-05-05 15:01 | 52.15694 | 6.45404 | 124 ft | 188 kts | 291° |
| 2026-05-05 15:01 | 52.16234 | 6.43940 | 43 ft | 96 kts | 299° |
| 2026-05-05 15:02 | 52.16321 | 6.43633 | 43 ft | 0 kts | 280° |
| 2026-05-05 15:02 | 52.16321 | 6.43632 | 43 ft | 0 kts | 280° |